sensor_id;sensor_type;location;lat;lon;timestamp;temperature;humidity
13229;DHT22;6680;53.220;10.402;2023-04-16T00:01:55;7.90;99.90
13229;DHT22;6680;53.220;10.402;2023-04-16T00:04:21;7.90;99.90
13229;DHT22;6680;53.220;10.402;2023-04-16T00:06:48;7.90;99.90
13229;DHT22;6680;53.220;10.402;2023-04-16T00:09:16;7.90;99.90
13229;DHT22;6680;53.220;10.402;2023-04-16T00:11:43;7.90;99.90
13229;DHT22;6680;53.220;10.402;2023-04-16T00:14:10;7.90;99.90
13229;DHT22;6680;53.220;10.402;2023-04-16T00:16:37;7.90;99.90
13229;DHT22;6680;53.220;10.402;2023-04-16T00:19:03;7.90;99.90
13229;DHT22;6680;53.220;10.402;2023-04-16T00:21:30;7.80;99.90
13229;DHT22;6680;53.220;10.402;2023-04-16T00:23:57;7.80;99.90
13229;DHT22;6680;53.220;10.402;2023-04-16T00:26:25;7.80;99.90
13229;DHT22;6680;53.220;10.402;2023-04-16T00:28:52;7.90;99.90
13229;DHT22;6680;53.220;10.402;2023-04-16T00:31:25;7.90;99.90
13229;DHT22;6680;53.220;10.402;2023-04-16T00:33:53;7.90;99.90
13229;DHT22;6680;53.220;10.402;2023-04-16T00:36:19;7.90;99.90
13229;DHT22;6680;53.220;10.402;2023-04-16T00:38:46;7.80;99.90
13229;DHT22;6680;53.220;10.402;2023-04-16T00:41:13;7.80;99.90
13229;DHT22;6680;53.220;10.402;2023-04-16T00:43:41;7.70;99.90
13229;DHT22;6680;53.220;10.402;2023-04-16T00:46:08;7.70;99.90
13229;DHT22;6680;53.220;10.402;2023-04-16T00:48:37;7.70;99.90
13229;DHT22;6680;53.220;10.402;2023-04-16T00:51:04;7.70;99.90
13229;DHT22;6680;53.220;10.402;2023-04-16T00:53:32;5.90;99.90
13229;DHT22;6680;53.220;10.402;2023-04-16T00:55:59;7.70;99.90
13229;DHT22;6680;53.220;10.402;2023-04-16T00:58:27;7.80;99.90
13229;DHT22;6680;53.220;10.402;2023-04-16T01:00:56;7.80;99.90
13229;DHT22;6680;53.220;10.402;2023-04-16T01:03:23;7.80;99.90
13229;DHT22;6680;53.220;10.402;2023-04-16T01:05:52;7.80;99.90
13229;DHT22;6680;53.220;10.402;2023-04-16T01:08:20;7.80;99.90
13229;DHT22;6680;53.220;10.402;2023-04-16T01:10:47;7.80;99.90
13229;DHT22;6680;53.220;10.402;2023-04-16T01:13:14;7.90;99.90
13229;DHT22;6680;53.220;10.402;2023-04-16T01:15:40;7.90;99.90
13229;DHT22;6680;53.220;10.402;2023-04-16T01:18:14;7.90;99.90
13229;DHT22;6680;53.220;10.402;2023-04-16T01:20:42;7.90;99.90
13229;DHT22;6680;53.220;10.402;2023-04-16T01:23:09;8.00;99.90
13229;DHT22;6680;53.220;10.402;2023-04-16T01:25:36;7.90;99.90
13229;DHT22;6680;53.220;10.402;2023-04-16T01:28:02;8.00;99.90
13229;DHT22;6680;53.220;10.402;2023-04-16T01:30:29;7.90;99.90
13229;DHT22;6680;53.220;10.402;2023-04-16T01:32:56;8.00;99.90
13229;DHT22;6680;53.220;10.402;2023-04-16T01:35:23;8.00;99.90
13229;DHT22;6680;53.220;10.402;2023-04-16T01:37:51;8.00;99.90
13229;DHT22;6680;53.220;10.402;2023-04-16T01:40:18;8.10;99.90
13229;DHT22;6680;53.220;10.402;2023-04-16T01:42:45;8.10;99.90
13229;DHT22;6680;53.220;10.402;2023-04-16T01:45:12;8.10;99.90
13229;DHT22;6680;53.220;10.402;2023-04-16T01:47:39;8.10;99.90
13229;DHT22;6680;53.220;10.402;2023-04-16T01:50:07;8.00;99.90
13229;DHT22;6680;53.220;10.402;2023-04-16T01:52:34;8.00;99.90
13229;DHT22;6680;53.220;10.402;2023-04-16T01:55:03;8.00;99.90
13229;DHT22;6680;53.220;10.402;2023-04-16T01:57:30;8.10;99.90
13229;DHT22;6680;53.220;10.402;2023-04-16T01:59:56;8.10;99.90
13229;DHT22;6680;53.220;10.402;2023-04-16T02:02:23;8.10;99.90
13229;DHT22;6680;53.220;10.402;2023-04-16T02:04:52;8.00;99.90
13229;DHT22;6680;53.220;10.402;2023-04-16T02:07:19;8.10;99.90
13229;DHT22;6680;53.220;10.402;2023-04-16T02:09:46;8.00;99.90
13229;DHT22;6680;53.220;10.402;2023-04-16T02:12:16;8.00;99.90
13229;DHT22;6680;53.220;10.402;2023-04-16T02:14:43;8.00;99.90
13229;DHT22;6680;53.220;10.402;2023-04-16T02:17:09;7.90;99.90
13229;DHT22;6680;53.220;10.402;2023-04-16T02:19:36;8.00;99.90
13229;DHT22;6680;53.220;10.402;2023-04-16T02:22:03;8.00;99.90
13229;DHT22;6680;53.220;10.402;2023-04-16T02:24:30;8.00;99.90
13229;DHT22;6680;53.220;10.402;2023-04-16T02:26:56;7.90;99.90
13229;DHT22;6680;53.220;10.402;2023-04-16T02:29:24;8.00;99.90
13229;DHT22;6680;53.220;10.402;2023-04-16T02:31:51;7.90;99.90
13229;DHT22;6680;53.220;10.402;2023-04-16T02:34:18;8.20;99.90
13229;DHT22;6680;53.220;10.402;2023-04-16T02:36:45;8.10;99.90
13229;DHT22;6680;53.220;10.402;2023-04-16T02:39:11;8.10;99.90
13229;DHT22;6680;53.220;10.402;2023-04-16T02:41:38;8.10;99.90
13229;DHT22;6680;53.220;10.402;2023-04-16T02:44:05;8.10;99.90
13229;DHT22;6680;53.220;10.402;2023-04-16T02:46:33;8.00;99.90
13229;DHT22;6680;53.220;10.402;2023-04-16T02:49:00;8.00;99.90
13229;DHT22;6680;53.220;10.402;2023-04-16T02:51:27;8.10;99.90
13229;DHT22;6680;53.220;10.402;2023-04-16T02:53:53;8.10;99.90
13229;DHT22;6680;53.220;10.402;2023-04-16T02:56:20;8.00;99.90
13229;DHT22;6680;53.220;10.402;2023-04-16T02:58:47;8.00;99.90
13229;DHT22;6680;53.220;10.402;2023-04-16T03:01:14;8.00;99.90
13229;DHT22;6680;53.220;10.402;2023-04-16T03:03:42;8.20;99.90
13229;DHT22;6680;53.220;10.402;2023-04-16T03:06:08;8.00;99.90
13229;DHT22;6680;53.220;10.402;2023-04-16T03:08:36;8.00;99.90
13229;DHT22;6680;53.220;10.402;2023-04-16T03:11:02;8.00;99.90
13229;DHT22;6680;53.220;10.402;2023-04-16T03:13:29;7.70;99.90
13229;DHT22;6680;53.220;10.402;2023-04-16T03:15:56;8.00;99.90
13229;DHT22;6680;53.220;10.402;2023-04-16T03:18:22;8.10;99.90
13229;DHT22;6680;53.220;10.402;2023-04-16T03:20:52;8.00;99.90
13229;DHT22;6680;53.220;10.402;2023-04-16T03:23:19;8.00;99.90
13229;DHT22;6680;53.220;10.402;2023-04-16T03:25:46;8.00;99.90
13229;DHT22;6680;53.220;10.402;2023-04-16T03:28:12;7.90;99.90
13229;DHT22;6680;53.220;10.402;2023-04-16T03:30:39;7.90;99.90
13229;DHT22;6680;53.220;10.402;2023-04-16T03:33:06;7.90;99.90
13229;DHT22;6680;53.220;10.402;2023-04-16T03:35:32;7.90;99.90
13229;DHT22;6680;53.220;10.402;2023-04-16T03:38:01;8.00;99.90
13229;DHT22;6680;53.220;10.402;2023-04-16T03:40:27;7.90;99.90
13229;DHT22;6680;53.220;10.402;2023-04-16T03:42:54;7.80;99.90
13229;DHT22;6680;53.220;10.402;2023-04-16T03:45:21;7.90;99.90
13229;DHT22;6680;53.220;10.402;2023-04-16T03:47:47;7.90;99.90
13229;DHT22;6680;53.220;10.402;2023-04-16T03:50:17;7.80;99.90
13229;DHT22;6680;53.220;10.402;2023-04-16T03:52:44;7.80;99.90
13229;DHT22;6680;53.220;10.402;2023-04-16T03:55:12;7.70;99.90
13229;DHT22;6680;53.220;10.402;2023-04-16T03:57:39;7.80;99.90
13229;DHT22;6680;53.220;10.402;2023-04-16T04:00:07;7.90;99.90
13229;DHT22;6680;53.220;10.402;2023-04-16T04:02:34;7.90;99.90
13229;DHT22;6680;53.220;10.402;2023-04-16T04:05:01;7.80;99.90
13229;DHT22;6680;53.220;10.402;2023-04-16T04:07:27;7.80;99.90
13229;DHT22;6680;53.220;10.402;2023-04-16T04:09:54;7.80;99.90
13229;DHT22;6680;53.220;10.402;2023-04-16T04:12:22;7.90;99.90
13229;DHT22;6680;53.220;10.402;2023-04-16T04:14:49;7.90;99.90
13229;DHT22;6680;53.220;10.402;2023-04-16T04:17:16;7.90;99.90
13229;DHT22;6680;53.220;10.402;2023-04-16T04:19:42;7.90;99.90
13229;DHT22;6680;53.220;10.402;2023-04-16T04:22:09;8.00;99.90
13229;DHT22;6680;53.220;10.402;2023-04-16T04:24:36;7.90;99.90
13229;DHT22;6680;53.220;10.402;2023-04-16T04:27:03;7.90;99.90
13229;DHT22;6680;53.220;10.402;2023-04-16T04:29:32;8.00;99.90
13229;DHT22;6680;53.220;10.402;2023-04-16T04:31:58;8.00;99.90
13229;DHT22;6680;53.220;10.402;2023-04-16T04:34:25;8.00;99.90
13229;DHT22;6680;53.220;10.402;2023-04-16T04:36:52;8.10;99.90
13229;DHT22;6680;53.220;10.402;2023-04-16T04:39:18;8.10;99.90
13229;DHT22;6680;53.220;10.402;2023-04-16T04:41:46;8.00;99.90
13229;DHT22;6680;53.220;10.402;2023-04-16T04:44:13;8.00;99.90
13229;DHT22;6680;53.220;10.402;2023-04-16T04:46:41;8.00;99.90
13229;DHT22;6680;53.220;10.402;2023-04-16T04:49:08;8.00;99.90
13229;DHT22;6680;53.220;10.402;2023-04-16T04:51:34;8.00;99.90
13229;DHT22;6680;53.220;10.402;2023-04-16T04:54:01;8.00;99.90
13229;DHT22;6680;53.220;10.402;2023-04-16T04:56:28;8.10;99.90
13229;DHT22;6680;53.220;10.402;2023-04-16T04:58:54;8.10;99.90
13229;DHT22;6680;53.220;10.402;2023-04-16T05:01:21;8.10;99.90
13229;DHT22;6680;53.220;10.402;2023-04-16T05:03:49;8.20;99.90
13229;DHT22;6680;53.220;10.402;2023-04-16T05:06:16;8.20;99.90
13229;DHT22;6680;53.220;10.402;2023-04-16T05:08:42;8.30;99.90
13229;DHT22;6680;53.220;10.402;2023-04-16T05:11:09;8.30;99.90
13229;DHT22;6680;53.220;10.402;2023-04-16T05:13:36;8.20;99.90
13229;DHT22;6680;53.220;10.402;2023-04-16T05:16:03;8.20;99.90
13229;DHT22;6680;53.220;10.402;2023-04-16T05:18:30;8.30;99.90
13229;DHT22;6680;53.220;10.402;2023-04-16T05:20:59;8.30;99.90
13229;DHT22;6680;53.220;10.402;2023-04-16T05:23:26;8.20;99.90
13229;DHT22;6680;53.220;10.402;2023-04-16T05:25:52;8.00;99.90
13229;DHT22;6680;53.220;10.402;2023-04-16T05:28:19;8.20;99.90
13229;DHT22;6680;53.220;10.402;2023-04-16T05:30:45;8.30;99.90
13229;DHT22;6680;53.220;10.402;2023-04-16T05:33:12;8.30;99.90
13229;DHT22;6680;53.220;10.402;2023-04-16T05:35:39;8.20;99.90
13229;DHT22;6680;53.220;10.402;2023-04-16T05:38:07;8.20;99.90
13229;DHT22;6680;53.220;10.402;2023-04-16T05:40:34;8.20;99.90
13229;DHT22;6680;53.220;10.402;2023-04-16T05:43:01;8.30;99.90
13229;DHT22;6680;53.220;10.402;2023-04-16T05:45:28;8.30;99.90
13229;DHT22;6680;53.220;10.402;2023-04-16T05:47:55;8.30;99.90
13229;DHT22;6680;53.220;10.402;2023-04-16T05:50:22;8.30;99.90
13229;DHT22;6680;53.220;10.402;2023-04-16T05:52:49;8.40;99.90
13229;DHT22;6680;53.220;10.402;2023-04-16T05:55:17;8.40;99.90
13229;DHT22;6680;53.220;10.402;2023-04-16T05:57:43;8.40;99.90
13229;DHT22;6680;53.220;10.402;2023-04-16T06:00:11;8.50;99.90
13229;DHT22;6680;53.220;10.402;2023-04-16T06:02:38;8.50;99.90
13229;DHT22;6680;53.220;10.402;2023-04-16T06:05:05;8.50;99.90
13229;DHT22;6680;53.220;10.402;2023-04-16T06:07:32;8.60;99.90
13229;DHT22;6680;53.220;10.402;2023-04-16T06:09:58;8.60;99.90
13229;DHT22;6680;53.220;10.402;2023-04-16T06:12:26;8.60;99.90
13229;DHT22;6680;53.220;10.402;2023-04-16T06:14:53;8.60;99.90
13229;DHT22;6680;53.220;10.402;2023-04-16T06:17:20;8.60;99.90
13229;DHT22;6680;53.220;10.402;2023-04-16T06:19:47;8.60;99.90
13229;DHT22;6680;53.220;10.402;2023-04-16T06:22:14;8.70;99.90
13229;DHT22;6680;53.220;10.402;2023-04-16T06:24:41;8.60;99.90
13229;DHT22;6680;53.220;10.402;2023-04-16T06:27:08;8.60;99.90
13229;DHT22;6680;53.220;10.402;2023-04-16T06:29:36;8.60;99.90
13229;DHT22;6680;53.220;10.402;2023-04-16T06:32:03;8.70;99.90
13229;DHT22;6680;53.220;10.402;2023-04-16T06:34:30;8.60;99.90
13229;DHT22;6680;53.220;10.402;2023-04-16T06:36:57;8.70;99.90
13229;DHT22;6680;53.220;10.402;2023-04-16T06:39:23;8.70;99.90
13229;DHT22;6680;53.220;10.402;2023-04-16T06:41:50;8.80;99.90
13229;DHT22;6680;53.220;10.402;2023-04-16T06:44:17;8.70;99.90
13229;DHT22;6680;53.220;10.402;2023-04-16T06:46:45;8.70;99.90
13229;DHT22;6680;53.220;10.402;2023-04-16T06:49:12;8.70;99.90
13229;DHT22;6680;53.220;10.402;2023-04-16T06:51:38;8.70;99.90
13229;DHT22;6680;53.220;10.402;2023-04-16T06:54:05;8.70;99.90
13229;DHT22;6680;53.220;10.402;2023-04-16T06:56:31;8.70;99.90
13229;DHT22;6680;53.220;10.402;2023-04-16T06:58:58;8.70;99.90
13229;DHT22;6680;53.220;10.402;2023-04-16T07:01:25;8.70;99.90
13229;DHT22;6680;53.220;10.402;2023-04-16T07:03:53;8.70;99.90
13229;DHT22;6680;53.220;10.402;2023-04-16T07:06:20;8.70;99.90
13229;DHT22;6680;53.220;10.402;2023-04-16T07:08:47;8.70;99.90
13229;DHT22;6680;53.220;10.402;2023-04-16T07:11:14;8.70;99.90
13229;DHT22;6680;53.220;10.402;2023-04-16T07:13:41;8.70;99.90
13229;DHT22;6680;53.220;10.402;2023-04-16T07:16:08;8.80;99.90
13229;DHT22;6680;53.220;10.402;2023-04-16T07:18:35;8.90;99.90
13229;DHT22;6680;53.220;10.402;2023-04-16T07:21:03;8.80;99.90
13229;DHT22;6680;53.220;10.402;2023-04-16T07:23:30;9.00;99.90
13229;DHT22;6680;53.220;10.402;2023-04-16T07:25:56;8.90;99.90
13229;DHT22;6680;53.220;10.402;2023-04-16T07:28:23;8.90;99.90
13229;DHT22;6680;53.220;10.402;2023-04-16T07:30:50;8.90;99.90
13229;DHT22;6680;53.220;10.402;2023-04-16T07:33:17;8.90;99.90
13229;DHT22;6680;53.220;10.402;2023-04-16T07:35:44;8.90;99.90
13229;DHT22;6680;53.220;10.402;2023-04-16T07:38:12;8.90;99.90
13229;DHT22;6680;53.220;10.402;2023-04-16T07:40:39;9.00;99.90
13229;DHT22;6680;53.220;10.402;2023-04-16T07:43:06;9.10;99.90
13229;DHT22;6680;53.220;10.402;2023-04-16T07:45:32;9.20;99.90
13229;DHT22;6680;53.220;10.402;2023-04-16T07:47:59;9.30;99.90
13229;DHT22;6680;53.220;10.402;2023-04-16T07:50:26;9.30;99.90
13229;DHT22;6680;53.220;10.402;2023-04-16T07:52:53;9.30;99.90
13229;DHT22;6680;53.220;10.402;2023-04-16T07:55:21;9.30;99.90
13229;DHT22;6680;53.220;10.402;2023-04-16T07:57:48;9.30;99.90
13229;DHT22;6680;53.220;10.402;2023-04-16T08:00:15;9.40;99.90
13229;DHT22;6680;53.220;10.402;2023-04-16T08:02:42;9.50;99.90
13229;DHT22;6680;53.220;10.402;2023-04-16T08:05:09;9.60;99.90
13229;DHT22;6680;53.220;10.402;2023-04-16T08:07:36;9.60;99.90
13229;DHT22;6680;53.220;10.402;2023-04-16T08:10:04;9.70;99.90
13229;DHT22;6680;53.220;10.402;2023-04-16T08:12:33;9.80;99.90
13229;DHT22;6680;53.220;10.402;2023-04-16T08:15:00;9.80;99.90
13229;DHT22;6680;53.220;10.402;2023-04-16T08:17:26;9.90;99.90
13229;DHT22;6680;53.220;10.402;2023-04-16T08:19:53;9.90;99.90
13229;DHT22;6680;53.220;10.402;2023-04-16T08:22:20;9.90;99.90
13229;DHT22;6680;53.220;10.402;2023-04-16T08:24:47;10.10;99.90
13229;DHT22;6680;53.220;10.402;2023-04-16T08:27:14;10.10;99.90
13229;DHT22;6680;53.220;10.402;2023-04-16T08:29:43;10.10;99.90
13229;DHT22;6680;53.220;10.402;2023-04-16T08:32:10;10.20;99.90
13229;DHT22;6680;53.220;10.402;2023-04-16T08:34:36;10.10;99.90
13229;DHT22;6680;53.220;10.402;2023-04-16T08:37:03;10.00;99.90
13229;DHT22;6680;53.220;10.402;2023-04-16T08:39:30;10.10;99.90
13229;DHT22;6680;53.220;10.402;2023-04-16T08:41:57;9.90;99.90
13229;DHT22;6680;53.220;10.402;2023-04-16T08:44:26;10.00;99.90
13229;DHT22;6680;53.220;10.402;2023-04-16T08:46:54;10.00;99.90
13229;DHT22;6680;53.220;10.402;2023-04-16T08:49:24;10.10;99.90
13229;DHT22;6680;53.220;10.402;2023-04-16T08:51:52;10.20;99.90
13229;DHT22;6680;53.220;10.402;2023-04-16T08:54:28;10.20;99.90
13229;DHT22;6680;53.220;10.402;2023-04-16T08:56:57;10.40;99.90
13229;DHT22;6680;53.220;10.402;2023-04-16T08:59:25;10.50;99.90
13229;DHT22;6680;53.220;10.402;2023-04-16T09:01:56;10.60;99.90
13229;DHT22;6680;53.220;10.402;2023-04-16T09:04:25;10.60;99.90
13229;DHT22;6680;53.220;10.402;2023-04-16T09:06:54;10.60;99.90
13229;DHT22;6680;53.220;10.402;2023-04-16T09:09:22;10.70;99.90
13229;DHT22;6680;53.220;10.402;2023-04-16T09:11:50;10.70;99.90
13229;DHT22;6680;53.220;10.402;2023-04-16T09:14:17;10.60;99.90
13229;DHT22;6680;53.220;10.402;2023-04-16T09:16:45;10.50;99.90
13229;DHT22;6680;53.220;10.402;2023-04-16T09:19:13;10.60;99.90
13229;DHT22;6680;53.220;10.402;2023-04-16T09:21:41;10.60;99.90
13229;DHT22;6680;53.220;10.402;2023-04-16T09:24:08;10.70;99.90
13229;DHT22;6680;53.220;10.402;2023-04-16T09:26:35;10.60;99.90
13229;DHT22;6680;53.220;10.402;2023-04-16T09:29:03;10.60;99.90
13229;DHT22;6680;53.220;10.402;2023-04-16T09:31:29;10.60;99.90
13229;DHT22;6680;53.220;10.402;2023-04-16T09:34:03;10.80;99.90
13229;DHT22;6680;53.220;10.402;2023-04-16T09:36:32;10.80;99.90
13229;DHT22;6680;53.220;10.402;2023-04-16T09:38:59;11.00;99.90
13229;DHT22;6680;53.220;10.402;2023-04-16T09:41:28;11.10;99.90
13229;DHT22;6680;53.220;10.402;2023-04-16T09:43:56;11.00;99.90
13229;DHT22;6680;53.220;10.402;2023-04-16T09:46:24;11.20;99.90
13229;DHT22;6680;53.220;10.402;2023-04-16T09:48:51;11.30;99.90
13229;DHT22;6680;53.220;10.402;2023-04-16T09:51:17;11.20;99.90
13229;DHT22;6680;53.220;10.402;2023-04-16T09:53:45;11.10;99.90
13229;DHT22;6680;53.220;10.402;2023-04-16T09:56:12;11.30;99.90
13229;DHT22;6680;53.220;10.402;2023-04-16T09:58:39;11.50;99.90
13229;DHT22;6680;53.220;10.402;2023-04-16T10:01:08;11.60;99.90
13229;DHT22;6680;53.220;10.402;2023-04-16T10:03:36;11.60;99.90
13229;DHT22;6680;53.220;10.402;2023-04-16T10:06:07;11.50;99.90
13229;DHT22;6680;53.220;10.402;2023-04-16T10:08:34;11.50;99.90
13229;DHT22;6680;53.220;10.402;2023-04-16T10:11:02;11.40;99.90
13229;DHT22;6680;53.220;10.402;2023-04-16T10:13:30;11.40;99.90
13229;DHT22;6680;53.220;10.402;2023-04-16T10:15:57;11.30;99.90
13229;DHT22;6680;53.220;10.402;2023-04-16T10:18:24;11.30;99.90
13229;DHT22;6680;53.220;10.402;2023-04-16T10:20:52;11.20;99.90
13229;DHT22;6680;53.220;10.402;2023-04-16T10:23:20;11.20;99.90
13229;DHT22;6680;53.220;10.402;2023-04-16T10:25:47;11.20;99.90
13229;DHT22;6680;53.220;10.402;2023-04-16T10:28:15;11.20;99.90
13229;DHT22;6680;53.220;10.402;2023-04-16T10:30:44;11.10;99.90
13229;DHT22;6680;53.220;10.402;2023-04-16T10:33:18;11.10;99.90
13229;DHT22;6680;53.220;10.402;2023-04-16T10:35:45;11.10;99.90
13229;DHT22;6680;53.220;10.402;2023-04-16T10:38:22;11.10;99.90
13229;DHT22;6680;53.220;10.402;2023-04-16T10:40:50;11.10;99.90
13229;DHT22;6680;53.220;10.402;2023-04-16T10:43:24;11.20;99.90
13229;DHT22;6680;53.220;10.402;2023-04-16T10:45:53;11.30;99.90
13229;DHT22;6680;53.220;10.402;2023-04-16T10:48:19;11.60;99.90
13229;DHT22;6680;53.220;10.402;2023-04-16T10:50:54;11.80;99.90
13229;DHT22;6680;53.220;10.402;2023-04-16T10:53:24;12.10;99.90
13229;DHT22;6680;53.220;10.402;2023-04-16T10:56:09;12.20;99.90
13229;DHT22;6680;53.220;10.402;2023-04-16T10:58:38;12.20;99.90
13229;DHT22;6680;53.220;10.402;2023-04-16T11:01:11;12.10;99.90
13229;DHT22;6680;53.220;10.402;2023-04-16T11:03:42;11.90;99.90
13229;DHT22;6680;53.220;10.402;2023-04-16T11:06:24;11.90;99.90
13229;DHT22;6680;53.220;10.402;2023-04-16T11:08:52;12.00;99.90
13229;DHT22;6680;53.220;10.402;2023-04-16T11:11:19;12.00;99.90
13229;DHT22;6680;53.220;10.402;2023-04-16T11:13:47;12.10;99.90
13229;DHT22;6680;53.220;10.402;2023-04-16T11:16:15;12.10;99.90
13229;DHT22;6680;53.220;10.402;2023-04-16T11:18:44;12.30;99.90
13229;DHT22;6680;53.220;10.402;2023-04-16T11:21:11;12.30;99.90
13229;DHT22;6680;53.220;10.402;2023-04-16T11:23:45;12.20;99.90
13229;DHT22;6680;53.220;10.402;2023-04-16T11:26:22;12.20;99.90
13229;DHT22;6680;53.220;10.402;2023-04-16T11:28:51;12.20;99.90
13229;DHT22;6680;53.220;10.402;2023-04-16T11:31:17;12.20;99.90
13229;DHT22;6680;53.220;10.402;2023-04-16T11:33:44;12.50;99.90
13229;DHT22;6680;53.220;10.402;2023-04-16T11:36:11;12.30;99.90
13229;DHT22;6680;53.220;10.402;2023-04-16T11:38:38;12.40;99.90
13229;DHT22;6680;53.220;10.402;2023-04-16T11:41:07;12.60;99.90
13229;DHT22;6680;53.220;10.402;2023-04-16T11:43:34;12.60;99.90
13229;DHT22;6680;53.220;10.402;2023-04-16T11:46:03;12.70;99.90
13229;DHT22;6680;53.220;10.402;2023-04-16T11:48:46;12.80;99.90
13229;DHT22;6680;53.220;10.402;2023-04-16T11:51:13;13.00;99.90
13229;DHT22;6680;53.220;10.402;2023-04-16T11:53:45;13.20;99.90
13229;DHT22;6680;53.220;10.402;2023-04-16T11:56:13;12.90;99.90
13229;DHT22;6680;53.220;10.402;2023-04-16T11:58:40;12.70;99.90
13229;DHT22;6680;53.220;10.402;2023-04-16T12:01:08;12.70;99.90
13229;DHT22;6680;53.220;10.402;2023-04-16T12:03:41;13.00;99.90
13229;DHT22;6680;53.220;10.402;2023-04-16T12:06:11;12.70;99.90
13229;DHT22;6680;53.220;10.402;2023-04-16T12:08:37;12.60;99.90
13229;DHT22;6680;53.220;10.402;2023-04-16T12:11:04;12.50;99.90
13229;DHT22;6680;53.220;10.402;2023-04-16T12:13:31;12.70;99.90
13229;DHT22;6680;53.220;10.402;2023-04-16T12:16:16;12.60;99.90
13229;DHT22;6680;53.220;10.402;2023-04-16T12:19:01;12.50;99.90
13229;DHT22;6680;53.220;10.402;2023-04-16T12:21:38;12.50;99.90
13229;DHT22;6680;53.220;10.402;2023-04-16T12:24:06;12.60;99.90
13229;DHT22;6680;53.220;10.402;2023-04-16T12:26:40;12.70;99.90
13229;DHT22;6680;53.220;10.402;2023-04-16T12:29:16;12.70;99.90
13229;DHT22;6680;53.220;10.402;2023-04-16T12:31:45;12.70;99.90
13229;DHT22;6680;53.220;10.402;2023-04-16T12:34:12;12.70;99.90
13229;DHT22;6680;53.220;10.402;2023-04-16T12:36:41;12.70;99.90
13229;DHT22;6680;53.220;10.402;2023-04-16T12:39:08;12.50;99.90
13229;DHT22;6680;53.220;10.402;2023-04-16T12:41:36;12.30;99.90
13229;DHT22;6680;53.220;10.402;2023-04-16T12:44:05;12.00;99.90
13229;DHT22;6680;53.220;10.402;2023-04-16T12:46:34;11.70;99.90
13229;DHT22;6680;53.220;10.402;2023-04-16T12:49:02;11.50;99.90
13229;DHT22;6680;53.220;10.402;2023-04-16T12:51:29;11.40;99.90
13229;DHT22;6680;53.220;10.402;2023-04-16T12:53:56;11.30;99.90
13229;DHT22;6680;53.220;10.402;2023-04-16T12:56:23;11.10;99.90
13229;DHT22;6680;53.220;10.402;2023-04-16T12:58:49;11.00;99.90
13229;DHT22;6680;53.220;10.402;2023-04-16T13:01:17;11.00;99.90
13229;DHT22;6680;53.220;10.402;2023-04-16T13:03:44;11.10;99.90
13229;DHT22;6680;53.220;10.402;2023-04-16T13:06:13;11.10;99.90
13229;DHT22;6680;53.220;10.402;2023-04-16T13:08:40;11.10;99.90
13229;DHT22;6680;53.220;10.402;2023-04-16T13:11:08;11.30;99.90
13229;DHT22;6680;53.220;10.402;2023-04-16T13:13:35;11.40;99.90
13229;DHT22;6680;53.220;10.402;2023-04-16T13:16:02;11.40;99.90
13229;DHT22;6680;53.220;10.402;2023-04-16T13:18:31;11.50;99.90
13229;DHT22;6680;53.220;10.402;2023-04-16T13:20:58;11.50;99.90
13229;DHT22;6680;53.220;10.402;2023-04-16T13:23:26;11.60;99.90
13229;DHT22;6680;53.220;10.402;2023-04-16T13:25:53;11.60;99.90
13229;DHT22;6680;53.220;10.402;2023-04-16T13:28:20;11.50;99.90
13229;DHT22;6680;53.220;10.402;2023-04-16T13:30:46;11.70;99.90
13229;DHT22;6680;53.220;10.402;2023-04-16T13:33:13;11.60;99.90
13229;DHT22;6680;53.220;10.402;2023-04-16T13:35:40;11.70;99.90
13229;DHT22;6680;53.220;10.402;2023-04-16T13:38:07;11.70;99.90
13229;DHT22;6680;53.220;10.402;2023-04-16T13:40:35;11.80;99.90
13229;DHT22;6680;53.220;10.402;2023-04-16T13:43:01;11.90;99.90
13229;DHT22;6680;53.220;10.402;2023-04-16T13:45:28;11.90;99.90
13229;DHT22;6680;53.220;10.402;2023-04-16T13:47:55;11.90;99.90
13229;DHT22;6680;53.220;10.402;2023-04-16T13:50:22;11.90;99.90
13229;DHT22;6680;53.220;10.402;2023-04-16T13:52:49;11.90;99.90
13229;DHT22;6680;53.220;10.402;2023-04-16T13:55:15;11.90;99.90
13229;DHT22;6680;53.220;10.402;2023-04-16T13:57:44;12.00;99.90
13229;DHT22;6680;53.220;10.402;2023-04-16T14:00:12;12.00;99.90
13229;DHT22;6680;53.220;10.402;2023-04-16T14:02:40;11.90;99.90
13229;DHT22;6680;53.220;10.402;2023-04-16T14:05:07;11.90;99.90
13229;DHT22;6680;53.220;10.402;2023-04-16T14:07:34;11.90;99.90
13229;DHT22;6680;53.220;10.402;2023-04-16T14:10:01;12.10;99.90
13229;DHT22;6680;53.220;10.402;2023-04-16T14:12:29;12.30;99.90
13229;DHT22;6680;53.220;10.402;2023-04-16T14:14:57;12.20;99.90
13229;DHT22;6680;53.220;10.402;2023-04-16T14:17:24;12.30;99.90
13229;DHT22;6680;53.220;10.402;2023-04-16T14:19:50;12.30;99.90
13229;DHT22;6680;53.220;10.402;2023-04-16T14:22:17;12.40;99.90
13229;DHT22;6680;53.220;10.402;2023-04-16T14:24:44;12.40;99.90
13229;DHT22;6680;53.220;10.402;2023-04-16T14:27:11;12.40;99.90
13229;DHT22;6680;53.220;10.402;2023-04-16T14:29:38;12.40;99.90
13229;DHT22;6680;53.220;10.402;2023-04-16T14:32:07;12.40;99.90
13229;DHT22;6680;53.220;10.402;2023-04-16T14:34:34;12.30;99.90
13229;DHT22;6680;53.220;10.402;2023-04-16T14:37:00;12.30;99.90
13229;DHT22;6680;53.220;10.402;2023-04-16T14:39:28;12.20;99.90
13229;DHT22;6680;53.220;10.402;2023-04-16T14:41:55;12.10;99.90
13229;DHT22;6680;53.220;10.402;2023-04-16T14:44:22;12.00;99.90
13229;DHT22;6680;53.220;10.402;2023-04-16T14:46:49;11.80;99.90
13229;DHT22;6680;53.220;10.402;2023-04-16T14:49:17;11.80;99.90
13229;DHT22;6680;53.220;10.402;2023-04-16T14:51:44;11.80;99.90
13229;DHT22;6680;53.220;10.402;2023-04-16T14:54:11;11.70;99.90
13229;DHT22;6680;53.220;10.402;2023-04-16T14:56:37;11.90;99.90
13229;DHT22;6680;53.220;10.402;2023-04-16T14:59:04;11.90;99.90
13229;DHT22;6680;53.220;10.402;2023-04-16T15:01:31;11.90;99.90
13229;DHT22;6680;53.220;10.402;2023-04-16T15:03:59;11.80;99.90
13229;DHT22;6680;53.220;10.402;2023-04-16T15:06:28;11.80;99.90
13229;DHT22;6680;53.220;10.402;2023-04-16T15:08:56;11.80;99.90
13229;DHT22;6680;53.220;10.402;2023-04-16T15:11:23;11.90;99.90
13229;DHT22;6680;53.220;10.402;2023-04-16T15:13:51;12.00;99.90
13229;DHT22;6680;53.220;10.402;2023-04-16T15:16:17;12.00;99.90
13229;DHT22;6680;53.220;10.402;2023-04-16T15:18:44;11.90;99.90
13229;DHT22;6680;53.220;10.402;2023-04-16T15:21:11;11.80;99.90
13229;DHT22;6680;53.220;10.402;2023-04-16T15:23:39;11.80;99.90
13229;DHT22;6680;53.220;10.402;2023-04-16T15:26:06;11.80;99.90
13229;DHT22;6680;53.220;10.402;2023-04-16T15:28:33;11.90;99.90
13229;DHT22;6680;53.220;10.402;2023-04-16T15:30:59;11.80;99.90
13229;DHT22;6680;53.220;10.402;2023-04-16T15:33:26;11.90;99.90
13229;DHT22;6680;53.220;10.402;2023-04-16T15:35:53;11.80;99.90
13229;DHT22;6680;53.220;10.402;2023-04-16T15:38:19;11.70;99.90
13229;DHT22;6680;53.220;10.402;2023-04-16T15:40:48;11.60;99.90
13229;DHT22;6680;53.220;10.402;2023-04-16T15:43:15;11.50;99.90